sensor_id;sensor_type;location;lat;lon;timestamp;P1;durP1;ratioP1;P2;durP2;ratioP2
11541;SDS011;5827;49.482;7.716;2023-03-26T00:01:20;5.43;;;2.27;;
11541;SDS011;5827;49.482;7.716;2023-03-26T00:03:23;6.00;;;2.60;;
11541;SDS011;5827;49.482;7.716;2023-03-26T00:05:25;8.03;;;2.30;;
11541;SDS011;5827;49.482;7.716;2023-03-26T00:07:26;4.43;;;2.07;;
11541;SDS011;5827;49.482;7.716;2023-03-26T00:09:28;5.27;;;2.53;;
11541;SDS011;5827;49.482;7.716;2023-03-26T00:11:31;10.50;;;2.80;;
11541;SDS011;5827;49.482;7.716;2023-03-26T00:13:33;7.23;;;2.20;;
11541;SDS011;5827;49.482;7.716;2023-03-26T00:15:35;5.37;;;2.40;;
11541;SDS011;5827;49.482;7.716;2023-03-26T00:17:37;7.37;;;2.10;;
11541;SDS011;5827;49.482;7.716;2023-03-26T00:19:38;9.17;;;2.47;;
11541;SDS011;5827;49.482;7.716;2023-03-26T00:21:40;10.43;;;2.70;;
11541;SDS011;5827;49.482;7.716;2023-03-26T00:23:41;9.40;;;2.73;;
11541;SDS011;5827;49.482;7.716;2023-03-26T00:25:43;4.20;;;2.30;;
11541;SDS011;5827;49.482;7.716;2023-03-26T00:27:51;8.80;;;2.13;;
11541;SDS011;5827;49.482;7.716;2023-03-26T00:29:52;9.73;;;2.23;;
11541;SDS011;5827;49.482;7.716;2023-03-26T00:31:55;10.17;;;2.70;;
11541;SDS011;5827;49.482;7.716;2023-03-26T00:33:57;7.60;;;3.03;;
11541;SDS011;5827;49.482;7.716;2023-03-26T00:36:02;8.30;;;2.50;;
11541;SDS011;5827;49.482;7.716;2023-03-26T00:38:05;9.17;;;2.63;;
11541;SDS011;5827;49.482;7.716;2023-03-26T00:40:07;7.27;;;2.70;;
11541;SDS011;5827;49.482;7.716;2023-03-26T00:42:10;9.37;;;2.50;;
11541;SDS011;5827;49.482;7.716;2023-03-26T00:44:15;7.30;;;2.70;;
11541;SDS011;5827;49.482;7.716;2023-03-26T00:46:16;5.77;;;2.37;;
11541;SDS011;5827;49.482;7.716;2023-03-26T00:48:18;5.40;;;2.60;;
11541;SDS011;5827;49.482;7.716;2023-03-26T00:50:21;9.10;;;2.50;;
11541;SDS011;5827;49.482;7.716;2023-03-26T00:52:23;8.17;;;2.77;;
11541;SDS011;5827;49.482;7.716;2023-03-26T00:54:27;12.00;;;2.37;;
11541;SDS011;5827;49.482;7.716;2023-03-26T00:56:29;10.83;;;2.63;;
11541;SDS011;5827;49.482;7.716;2023-03-26T00:58:30;7.80;;;2.47;;
11541;SDS011;5827;49.482;7.716;2023-03-26T01:00:34;6.63;;;2.90;;
11541;SDS011;5827;49.482;7.716;2023-03-26T01:02:38;9.27;;;2.40;;
11541;SDS011;5827;49.482;7.716;2023-03-26T01:04:41;6.20;;;2.40;;
11541;SDS011;5827;49.482;7.716;2023-03-26T01:06:45;7.53;;;2.33;;
11541;SDS011;5827;49.482;7.716;2023-03-26T01:08:47;5.97;;;2.40;;
11541;SDS011;5827;49.482;7.716;2023-03-26T01:10:49;9.07;;;2.67;;
11541;SDS011;5827;49.482;7.716;2023-03-26T01:12:51;5.30;;;2.40;;
11541;SDS011;5827;49.482;7.716;2023-03-26T01:14:54;9.50;;;2.63;;
11541;SDS011;5827;49.482;7.716;2023-03-26T01:17:01;9.00;;;2.67;;
11541;SDS011;5827;49.482;7.716;2023-03-26T01:19:05;7.37;;;2.67;;
11541;SDS011;5827;49.482;7.716;2023-03-26T01:21:12;9.00;;;2.40;;
11541;SDS011;5827;49.482;7.716;2023-03-26T01:23:14;9.87;;;2.70;;
11541;SDS011;5827;49.482;7.716;2023-03-26T01:25:26;10.17;;;3.07;;
11541;SDS011;5827;49.482;7.716;2023-03-26T01:27:36;6.93;;;2.80;;
11541;SDS011;5827;49.482;7.716;2023-03-26T01:29:43;6.63;;;2.03;;
11541;SDS011;5827;49.482;7.716;2023-03-26T01:31:54;7.70;;;3.40;;
11541;SDS011;5827;49.482;7.716;2023-03-26T01:34:02;9.10;;;2.70;;
11541;SDS011;5827;49.482;7.716;2023-03-26T01:36:14;7.30;;;2.47;;
11541;SDS011;5827;49.482;7.716;2023-03-26T01:38:22;6.47;;;2.73;;
11541;SDS011;5827;49.482;7.716;2023-03-26T01:40:36;8.50;;;3.07;;
11541;SDS011;5827;49.482;7.716;2023-03-26T01:42:42;13.63;;;3.20;;
11541;SDS011;5827;49.482;7.716;2023-03-26T01:44:53;12.53;;;3.17;;
11541;SDS011;5827;49.482;7.716;2023-03-26T01:46:58;7.87;;;2.97;;
11541;SDS011;5827;49.482;7.716;2023-03-26T01:49:00;6.93;;;3.03;;
11541;SDS011;5827;49.482;7.716;2023-03-26T01:51:03;12.13;;;2.93;;
11541;SDS011;5827;49.482;7.716;2023-03-26T01:53:05;9.80;;;2.90;;
11541;SDS011;5827;49.482;7.716;2023-03-26T01:55:08;11.70;;;2.87;;
11541;SDS011;5827;49.482;7.716;2023-03-26T01:57:14;7.10;;;2.83;;
11541;SDS011;5827;49.482;7.716;2023-03-26T01:59:31;8.60;;;3.23;;
11541;SDS011;5827;49.482;7.716;2023-03-26T02:01:47;12.47;;;3.80;;
11541;SDS011;5827;49.482;7.716;2023-03-26T02:03:58;11.30;;;3.50;;
11541;SDS011;5827;49.482;7.716;2023-03-26T02:06:08;8.87;;;3.67;;
11541;SDS011;5827;49.482;7.716;2023-03-26T02:08:16;10.80;;;3.37;;
11541;SDS011;5827;49.482;7.716;2023-03-26T02:10:24;11.23;;;3.57;;
11541;SDS011;5827;49.482;7.716;2023-03-26T02:12:29;10.77;;;3.30;;
11541;SDS011;5827;49.482;7.716;2023-03-26T02:14:32;7.80;;;3.40;;
11541;SDS011;5827;49.482;7.716;2023-03-26T02:16:33;11.50;;;3.87;;
11541;SDS011;5827;49.482;7.716;2023-03-26T02:18:35;10.63;;;3.30;;
11541;SDS011;5827;49.482;7.716;2023-03-26T02:20:37;6.93;;;3.00;;
11541;SDS011;5827;49.482;7.716;2023-03-26T02:22:40;7.63;;;3.00;;
11541;SDS011;5827;49.482;7.716;2023-03-26T02:24:44;10.27;;;3.10;;
11541;SDS011;5827;49.482;7.716;2023-03-26T02:26:46;10.60;;;3.10;;
11541;SDS011;5827;49.482;7.716;2023-03-26T02:28:49;8.13;;;2.73;;
11541;SDS011;5827;49.482;7.716;2023-03-26T02:30:51;9.30;;;2.90;;
11541;SDS011;5827;49.482;7.716;2023-03-26T02:32:56;7.33;;;2.50;;
11541;SDS011;5827;49.482;7.716;2023-03-26T02:34:59;6.07;;;2.40;;
11541;SDS011;5827;49.482;7.716;2023-03-26T02:37:00;5.97;;;2.30;;
11541;SDS011;5827;49.482;7.716;2023-03-26T02:39:02;8.57;;;2.73;;
11541;SDS011;5827;49.482;7.716;2023-03-26T02:41:04;10.63;;;2.90;;
11541;SDS011;5827;49.482;7.716;2023-03-26T02:43:05;7.80;;;2.90;;
11541;SDS011;5827;49.482;7.716;2023-03-26T02:45:09;9.87;;;3.03;;
11541;SDS011;5827;49.482;7.716;2023-03-26T02:47:10;7.03;;;2.90;;
11541;SDS011;5827;49.482;7.716;2023-03-26T02:49:12;9.43;;;3.17;;
11541;SDS011;5827;49.482;7.716;2023-03-26T02:51:13;7.93;;;2.97;;
11541;SDS011;5827;49.482;7.716;2023-03-26T02:53:17;9.03;;;2.80;;
11541;SDS011;5827;49.482;7.716;2023-03-26T02:55:19;8.20;;;2.37;;
11541;SDS011;5827;49.482;7.716;2023-03-26T02:57:20;10.53;;;3.37;;
11541;SDS011;5827;49.482;7.716;2023-03-26T02:59:22;8.20;;;2.80;;
11541;SDS011;5827;49.482;7.716;2023-03-26T03:01:25;9.23;;;3.07;;
11541;SDS011;5827;49.482;7.716;2023-03-26T03:03:29;6.33;;;2.50;;
11541;SDS011;5827;49.482;7.716;2023-03-26T03:05:31;5.33;;;2.40;;
11541;SDS011;5827;49.482;7.716;2023-03-26T03:07:34;9.10;;;2.97;;
11541;SDS011;5827;49.482;7.716;2023-03-26T03:09:37;8.63;;;3.00;;
11541;SDS011;5827;49.482;7.716;2023-03-26T03:11:39;9.60;;;2.67;;
11541;SDS011;5827;49.482;7.716;2023-03-26T03:13:41;10.20;;;3.10;;
11541;SDS011;5827;49.482;7.716;2023-03-26T03:15:42;7.87;;;2.80;;
11541;SDS011;5827;49.482;7.716;2023-03-26T03:17:45;6.30;;;3.23;;
11541;SDS011;5827;49.482;7.716;2023-03-26T03:19:46;9.00;;;2.73;;
11541;SDS011;5827;49.482;7.716;2023-03-26T03:21:48;8.83;;;3.17;;
11541;SDS011;5827;49.482;7.716;2023-03-26T03:23:50;10.70;;;3.47;;
11541;SDS011;5827;49.482;7.716;2023-03-26T03:25:51;11.43;;;3.87;;
11541;SDS011;5827;49.482;7.716;2023-03-26T03:27:56;8.47;;;2.90;;
11541;SDS011;5827;49.482;7.716;2023-03-26T03:29:57;11.27;;;3.13;;
11541;SDS011;5827;49.482;7.716;2023-03-26T03:31:59;9.20;;;2.80;;
11541;SDS011;5827;49.482;7.716;2023-03-26T03:34:02;10.13;;;2.93;;
11541;SDS011;5827;49.482;7.716;2023-03-26T03:36:03;8.10;;;2.97;;
11541;SDS011;5827;49.482;7.716;2023-03-26T03:38:09;6.63;;;2.90;;
11541;SDS011;5827;49.482;7.716;2023-03-26T03:40:11;9.83;;;3.20;;
11541;SDS011;5827;49.482;7.716;2023-03-26T03:42:12;9.87;;;2.97;;
11541;SDS011;5827;49.482;7.716;2023-03-26T03:44:14;10.13;;;2.73;;
11541;SDS011;5827;49.482;7.716;2023-03-26T03:46:15;6.23;;;2.50;;
11541;SDS011;5827;49.482;7.716;2023-03-26T03:48:17;8.97;;;3.10;;
11541;SDS011;5827;49.482;7.716;2023-03-26T03:50:20;10.67;;;2.90;;
11541;SDS011;5827;49.482;7.716;2023-03-26T03:52:21;9.43;;;3.23;;
11541;SDS011;5827;49.482;7.716;2023-03-26T03:54:23;11.87;;;2.90;;
11541;SDS011;5827;49.482;7.716;2023-03-26T03:56:24;12.00;;;3.77;;
11541;SDS011;5827;49.482;7.716;2023-03-26T03:58:26;10.27;;;3.57;;
11541;SDS011;5827;49.482;7.716;2023-03-26T04:00:30;8.17;;;3.37;;
11541;SDS011;5827;49.482;7.716;2023-03-26T04:02:31;10.57;;;3.47;;
11541;SDS011;5827;49.482;7.716;2023-03-26T04:04:34;9.03;;;3.00;;
11541;SDS011;5827;49.482;7.716;2023-03-26T04:06:37;14.27;;;3.53;;
11541;SDS011;5827;49.482;7.716;2023-03-26T04:08:39;8.07;;;3.30;;
11541;SDS011;5827;49.482;7.716;2023-03-26T04:10:40;9.30;;;3.27;;
11541;SDS011;5827;49.482;7.716;2023-03-26T04:12:42;8.13;;;3.70;;
11541;SDS011;5827;49.482;7.716;2023-03-26T04:14:44;10.43;;;3.70;;
11541;SDS011;5827;49.482;7.716;2023-03-26T04:16:46;9.17;;;3.60;;
11541;SDS011;5827;49.482;7.716;2023-03-26T04:18:48;11.23;;;3.33;;
11541;SDS011;5827;49.482;7.716;2023-03-26T04:20:49;8.63;;;3.23;;
11541;SDS011;5827;49.482;7.716;2023-03-26T04:22:52;13.93;;;3.80;;
11541;SDS011;5827;49.482;7.716;2023-03-26T04:24:54;9.13;;;2.73;;
11541;SDS011;5827;49.482;7.716;2023-03-26T04:26:55;8.67;;;3.40;;
11541;SDS011;5827;49.482;7.716;2023-03-26T04:29:01;12.53;;;3.57;;
11541;SDS011;5827;49.482;7.716;2023-03-26T04:31:04;14.37;;;3.80;;
11541;SDS011;5827;49.482;7.716;2023-03-26T04:33:07;12.83;;;3.33;;
11541;SDS011;5827;49.482;7.716;2023-03-26T04:35:14;11.10;;;2.90;;
11541;SDS011;5827;49.482;7.716;2023-03-26T04:37:21;14.23;;;4.03;;
11541;SDS011;5827;49.482;7.716;2023-03-26T04:39:28;11.37;;;3.73;;
11541;SDS011;5827;49.482;7.716;2023-03-26T04:41:29;10.33;;;3.40;;
11541;SDS011;5827;49.482;7.716;2023-03-26T04:43:31;10.60;;;3.30;;
11541;SDS011;5827;49.482;7.716;2023-03-26T04:45:34;12.83;;;3.40;;
11541;SDS011;5827;49.482;7.716;2023-03-26T04:47:35;10.57;;;3.13;;
11541;SDS011;5827;49.482;7.716;2023-03-26T04:49:38;9.50;;;3.30;;
11541;SDS011;5827;49.482;7.716;2023-03-26T04:51:40;9.97;;;3.33;;
11541;SDS011;5827;49.482;7.716;2023-03-26T04:53:44;10.23;;;3.47;;
11541;SDS011;5827;49.482;7.716;2023-03-26T04:55:54;12.17;;;3.50;;
11541;SDS011;5827;49.482;7.716;2023-03-26T04:58:00;9.17;;;3.47;;
11541;SDS011;5827;49.482;7.716;2023-03-26T05:00:05;15.80;;;4.73;;
11541;SDS011;5827;49.482;7.716;2023-03-26T05:02:14;15.93;;;4.87;;
11541;SDS011;5827;49.482;7.716;2023-03-26T05:04:17;12.23;;;4.37;;
11541;SDS011;5827;49.482;7.716;2023-03-26T05:06:18;9.83;;;3.87;;
11541;SDS011;5827;49.482;7.716;2023-03-26T05:08:20;11.23;;;4.57;;
11541;SDS011;5827;49.482;7.716;2023-03-26T05:10:22;9.73;;;4.30;;
11541;SDS011;5827;49.482;7.716;2023-03-26T05:12:25;11.53;;;5.80;;
11541;SDS011;5827;49.482;7.716;2023-03-26T05:14:26;14.77;;;6.13;;
11541;SDS011;5827;49.482;7.716;2023-03-26T05:16:28;13.40;;;6.00;;
11541;SDS011;5827;49.482;7.716;2023-03-26T05:18:30;9.90;;;4.33;;
11541;SDS011;5827;49.482;7.716;2023-03-26T05:20:32;8.50;;;4.30;;
11541;SDS011;5827;49.482;7.716;2023-03-26T05:22:34;11.07;;;4.37;;
11541;SDS011;5827;49.482;7.716;2023-03-26T05:24:37;10.30;;;4.43;;
11541;SDS011;5827;49.482;7.716;2023-03-26T05:26:39;11.37;;;3.80;;
11541;SDS011;5827;49.482;7.716;2023-03-26T05:28:42;12.03;;;4.17;;
11541;SDS011;5827;49.482;7.716;2023-03-26T05:30:43;10.20;;;4.10;;
11541;SDS011;5827;49.482;7.716;2023-03-26T05:32:45;8.70;;;3.70;;
11541;SDS011;5827;49.482;7.716;2023-03-26T05:34:48;11.67;;;3.60;;
11541;SDS011;5827;49.482;7.716;2023-03-26T05:36:50;10.43;;;4.07;;
11541;SDS011;5827;49.482;7.716;2023-03-26T05:38:52;13.87;;;4.00;;
11541;SDS011;5827;49.482;7.716;2023-03-26T05:40:56;12.07;;;4.10;;
11541;SDS011;5827;49.482;7.716;2023-03-26T05:42:58;9.13;;;3.83;;
11541;SDS011;5827;49.482;7.716;2023-03-26T05:45:01;9.10;;;3.50;;
11541;SDS011;5827;49.482;7.716;2023-03-26T05:47:02;9.13;;;3.37;;
11541;SDS011;5827;49.482;7.716;2023-03-26T05:49:04;12.63;;;4.33;;
11541;SDS011;5827;49.482;7.716;2023-03-26T05:51:06;14.80;;;4.07;;
11541;SDS011;5827;49.482;7.716;2023-03-26T05:53:08;10.37;;;3.40;;
11541;SDS011;5827;49.482;7.716;2023-03-26T05:55:09;7.60;;;3.60;;
11541;SDS011;5827;49.482;7.716;2023-03-26T05:57:11;9.30;;;3.50;;
11541;SDS011;5827;49.482;7.716;2023-03-26T05:59:13;12.97;;;4.03;;
11541;SDS011;5827;49.482;7.716;2023-03-26T06:01:16;7.47;;;3.33;;
11541;SDS011;5827;49.482;7.716;2023-03-26T06:03:18;9.90;;;3.80;;
11541;SDS011;5827;49.482;7.716;2023-03-26T06:05:21;9.87;;;4.30;;
11541;SDS011;5827;49.482;7.716;2023-03-26T06:07:25;8.53;;;3.60;;
11541;SDS011;5827;49.482;7.716;2023-03-26T06:09:27;11.33;;;3.87;;
11541;SDS011;5827;49.482;7.716;2023-03-26T06:11:29;13.83;;;3.90;;
11541;SDS011;5827;49.482;7.716;2023-03-26T06:13:31;9.83;;;3.80;;
11541;SDS011;5827;49.482;7.716;2023-03-26T06:15:33;8.60;;;3.77;;
11541;SDS011;5827;49.482;7.716;2023-03-26T06:17:36;8.83;;;3.53;;
11541;SDS011;5827;49.482;7.716;2023-03-26T06:19:38;8.13;;;3.60;;
11541;SDS011;5827;49.482;7.716;2023-03-26T06:21:39;10.20;;;4.30;;
11541;SDS011;5827;49.482;7.716;2023-03-26T06:23:41;10.33;;;3.63;;
11541;SDS011;5827;49.482;7.716;2023-03-26T06:25:42;9.27;;;4.20;;
11541;SDS011;5827;49.482;7.716;2023-03-26T06:27:45;7.80;;;3.87;;
11541;SDS011;5827;49.482;7.716;2023-03-26T06:29:47;12.67;;;4.10;;
11541;SDS011;5827;49.482;7.716;2023-03-26T06:31:48;10.87;;;3.73;;
11541;SDS011;5827;49.482;7.716;2023-03-26T06:33:51;8.70;;;4.00;;
11541;SDS011;5827;49.482;7.716;2023-03-26T06:35:53;7.43;;;3.63;;
11541;SDS011;5827;49.482;7.716;2023-03-26T06:37:54;7.07;;;3.27;;
11541;SDS011;5827;49.482;7.716;2023-03-26T06:39:56;7.93;;;3.60;;
11541;SDS011;5827;49.482;7.716;2023-03-26T06:41:58;9.10;;;4.23;;
11541;SDS011;5827;49.482;7.716;2023-03-26T06:43:59;11.73;;;5.60;;
11541;SDS011;5827;49.482;7.716;2023-03-26T06:46:01;10.03;;;5.50;;
11541;SDS011;5827;49.482;7.716;2023-03-26T06:48:03;9.93;;;4.67;;
11541;SDS011;5827;49.482;7.716;2023-03-26T06:50:07;9.73;;;4.67;;
11541;SDS011;5827;49.482;7.716;2023-03-26T06:52:10;10.87;;;3.87;;
11541;SDS011;5827;49.482;7.716;2023-03-26T06:54:13;10.67;;;3.50;;
11541;SDS011;5827;49.482;7.716;2023-03-26T06:56:14;7.60;;;3.03;;
11541;SDS011;5827;49.482;7.716;2023-03-26T06:58:16;9.73;;;2.70;;
11541;SDS011;5827;49.482;7.716;2023-03-26T07:00:17;9.27;;;2.60;;
11541;SDS011;5827;49.482;7.716;2023-03-26T07:02:20;7.10;;;2.67;;
11541;SDS011;5827;49.482;7.716;2023-03-26T07:04:21;8.27;;;2.27;;
11541;SDS011;5827;49.482;7.716;2023-03-26T07:06:24;7.67;;;2.50;;
11541;SDS011;5827;49.482;7.716;2023-03-26T07:08:26;7.20;;;2.20;;
11541;SDS011;5827;49.482;7.716;2023-03-26T07:10:27;6.37;;;2.60;;
11541;SDS011;5827;49.482;7.716;2023-03-26T07:12:29;7.97;;;2.17;;
11541;SDS011;5827;49.482;7.716;2023-03-26T07:14:30;7.17;;;2.30;;
11541;SDS011;5827;49.482;7.716;2023-03-26T07:16:32;6.83;;;2.50;;
11541;SDS011;5827;49.482;7.716;2023-03-26T07:18:33;6.07;;;2.00;;
11541;SDS011;5827;49.482;7.716;2023-03-26T07:20:35;4.67;;;2.20;;
11541;SDS011;5827;49.482;7.716;2023-03-26T07:22:39;6.83;;;2.40;;
11541;SDS011;5827;49.482;7.716;2023-03-26T07:24:41;8.57;;;2.40;;
11541;SDS011;5827;49.482;7.716;2023-03-26T07:26:45;10.07;;;2.73;;
11541;SDS011;5827;49.482;7.716;2023-03-26T07:28:53;5.60;;;2.10;;
11541;SDS011;5827;49.482;7.716;2023-03-26T07:31:02;6.03;;;2.50;;
11541;SDS011;5827;49.482;7.716;2023-03-26T07:33:13;6.43;;;2.40;;
11541;SDS011;5827;49.482;7.716;2023-03-26T07:35:20;5.80;;;2.00;;
11541;SDS011;5827;49.482;7.716;2023-03-26T07:37:29;7.60;;;2.10;;
11541;SDS011;5827;49.482;7.716;2023-03-26T07:39:41;6.40;;;2.27;;
11541;SDS011;5827;49.482;7.716;2023-03-26T07:41:52;6.07;;;2.47;;
11541;SDS011;5827;49.482;7.716;2023-03-26T07:44:13;4.73;;;2.53;;
11541;SDS011;5827;49.482;7.716;2023-03-26T07:46:27;5.60;;;2.57;;
11541;SDS011;5827;49.482;7.716;2023-03-26T07:48:36;7.10;;;2.70;;
11541;SDS011;5827;49.482;7.716;2023-03-26T07:50:41;6.50;;;2.40;;
11541;SDS011;5827;49.482;7.716;2023-03-26T07:52:43;7.23;;;2.47;;
11541;SDS011;5827;49.482;7.716;2023-03-26T07:54:46;8.37;;;2.87;;
11541;SDS011;5827;49.482;7.716;2023-03-26T07:56:49;6.13;;;2.40;;
11541;SDS011;5827;49.482;7.716;2023-03-26T07:58:58;7.73;;;2.50;;
11541;SDS011;5827;49.482;7.716;2023-03-26T08:01:11;6.57;;;2.23;;
11541;SDS011;5827;49.482;7.716;2023-03-26T08:03:24;6.03;;;2.20;;
11541;SDS011;5827;49.482;7.716;2023-03-26T08:05:42;4.10;;;2.30;;
11541;SDS011;5827;49.482;7.716;2023-03-26T08:07:52;4.20;;;2.17;;
11541;SDS011;5827;49.482;7.716;2023-03-26T08:10:05;5.33;;;2.00;;
11541;SDS011;5827;49.482;7.716;2023-03-26T08:12:17;5.17;;;2.30;;
11541;SDS011;5827;49.482;7.716;2023-03-26T08:14:32;6.20;;;2.00;;
11541;SDS011;5827;49.482;7.716;2023-03-26T08:16:44;5.70;;;2.57;;
11541;SDS011;5827;49.482;7.716;2023-03-26T08:18:55;7.70;;;4.00;;
11541;SDS011;5827;49.482;7.716;2023-03-26T08:21:05;7.63;;;3.00;;
11541;SDS011;5827;49.482;7.716;2023-03-26T08:23:15;6.50;;;2.80;;
11541;SDS011;5827;49.482;7.716;2023-03-26T08:25:26;4.97;;;1.87;;
11541;SDS011;5827;49.482;7.716;2023-03-26T08:27:35;3.37;;;2.10;;
11541;SDS011;5827;49.482;7.716;2023-03-26T08:29:39;4.93;;;2.07;;
11541;SDS011;5827;49.482;7.716;2023-03-26T08:31:46;4.33;;;1.97;;
11541;SDS011;5827;49.482;7.716;2023-03-26T08:33:48;4.13;;;1.80;;
11541;SDS011;5827;49.482;7.716;2023-03-26T08:35:50;5.63;;;2.30;;
11541;SDS011;5827;49.482;7.716;2023-03-26T08:37:52;4.83;;;2.00;;
11541;SDS011;5827;49.482;7.716;2023-03-26T08:39:53;3.30;;;1.60;;
11541;SDS011;5827;49.482;7.716;2023-03-26T08:42:02;2.73;;;1.80;;
11541;SDS011;5827;49.482;7.716;2023-03-26T08:44:37;3.53;;;1.80;;
11541;SDS011;5827;49.482;7.716;2023-03-26T08:47:10;4.73;;;1.40;;
11541;SDS011;5827;49.482;7.716;2023-03-26T08:49:41;4.00;;;1.50;;
11541;SDS011;5827;49.482;7.716;2023-03-26T08:52:04;4.83;;;1.47;;
11541;SDS011;5827;49.482;7.716;2023-03-26T08:57:14;2.37;;;1.53;;
11541;SDS011;5827;49.482;7.716;2023-03-26T08:59:47;3.00;;;1.73;;
11541;SDS011;5827;49.482;7.716;2023-03-26T09:02:07;4.83;;;1.50;;
11541;SDS011;5827;49.482;7.716;2023-03-26T09:07:27;4.03;;;1.90;;
11541;SDS011;5827;49.482;7.716;2023-03-26T09:12:45;4.03;;;1.80;;
11541;SDS011;5827;49.482;7.716;2023-03-26T09:17:44;6.30;;;2.00;;
11541;SDS011;5827;49.482;7.716;2023-03-26T09:20:18;3.77;;;2.00;;
11541;SDS011;5827;49.482;7.716;2023-03-26T09:23:00;3.30;;;2.10;;
11541;SDS011;5827;49.482;7.716;2023-03-26T09:28:00;3.77;;;2.03;;
11541;SDS011;5827;49.482;7.716;2023-03-26T09:35:42;7.20;;;3.03;;
11541;SDS011;5827;49.482;7.716;2023-03-26T09:38:09;6.83;;;4.47;;
11541;SDS011;5827;49.482;7.716;2023-03-26T09:40:14;3.30;;;1.70;;
11541;SDS011;5827;49.482;7.716;2023-03-26T09:42:21;7.73;;;2.60;;
11541;SDS011;5827;49.482;7.716;2023-03-26T09:44:39;2.87;;;1.90;;
11541;SDS011;5827;49.482;7.716;2023-03-26T09:47:00;4.33;;;3.10;;
11541;SDS011;5827;49.482;7.716;2023-03-26T09:49:24;6.30;;;2.63;;
11541;SDS011;5827;49.482;7.716;2023-03-26T09:51:45;5.23;;;2.20;;
11541;SDS011;5827;49.482;7.716;2023-03-26T09:54:09;3.27;;;1.50;;
11541;SDS011;5827;49.482;7.716;2023-03-26T09:56:30;4.10;;;1.97;;
11541;SDS011;5827;49.482;7.716;2023-03-26T10:01:11;4.00;;;2.13;;
11541;SDS011;5827;49.482;7.716;2023-03-26T10:03:29;3.43;;;1.70;;
11541;SDS011;5827;49.482;7.716;2023-03-26T10:08:10;2.53;;;1.50;;
11541;SDS011;5827;49.482;7.716;2023-03-26T10:10:28;4.43;;;1.77;;
11541;SDS011;5827;49.482;7.716;2023-03-26T10:12:36;2.03;;;1.43;;
11541;SDS011;5827;49.482;7.716;2023-03-26T10:14:41;2.97;;;1.13;;
11541;SDS011;5827;49.482;7.716;2023-03-26T10:16:51;2.80;;;1.10;;
11541;SDS011;5827;49.482;7.716;2023-03-26T10:19:06;9.33;;;6.47;;
11541;SDS011;5827;49.482;7.716;2023-03-26T10:21:23;6.87;;;3.50;;
11541;SDS011;5827;49.482;7.716;2023-03-26T10:23:37;1.63;;;1.20;;
11541;SDS011;5827;49.482;7.716;2023-03-26T10:26:01;2.57;;;1.77;;
11541;SDS011;5827;49.482;7.716;2023-03-26T10:28:20;3.33;;;1.60;;
11541;SDS011;5827;49.482;7.716;2023-03-26T10:30:41;2.77;;;1.50;;
11541;SDS011;5827;49.482;7.716;2023-03-26T10:33:11;4.13;;;1.57;;
11541;SDS011;5827;49.482;7.716;2023-03-26T10:35:19;2.30;;;1.37;;
11541;SDS011;5827;49.482;7.716;2023-03-26T10:37:28;3.13;;;1.30;;
11541;SDS011;5827;49.482;7.716;2023-03-26T10:39:56;1.97;;;1.20;;
11541;SDS011;5827;49.482;7.716;2023-03-26T10:42:22;4.00;;;1.50;;
11541;SDS011;5827;49.482;7.716;2023-03-26T10:44:46;2.20;;;1.00;;
11541;SDS011;5827;49.482;7.716;2023-03-26T10:51:58;3.30;;;1.27;;
11541;SDS011;5827;49.482;7.716;2023-03-26T10:54:05;2.67;;;1.23;;
11541;SDS011;5827;49.482;7.716;2023-03-26T10:56:12;1.50;;;1.10;;
11541;SDS011;5827;49.482;7.716;2023-03-26T10:58:21;3.63;;;1.20;;
11541;SDS011;5827;49.482;7.716;2023-03-26T11:00:25;1.50;;;1.27;;
11541;SDS011;5827;49.482;7.716;2023-03-26T11:02:29;3.37;;;1.70;;
11541;SDS011;5827;49.482;7.716;2023-03-26T11:04:41;2.80;;;1.37;;
11541;SDS011;5827;49.482;7.716;2023-03-26T11:06:52;2.80;;;1.20;;
11541;SDS011;5827;49.482;7.716;2023-03-26T11:09:04;2.40;;;1.10;;
11541;SDS011;5827;49.482;7.716;2023-03-26T11:11:18;3.63;;;1.30;;
11541;SDS011;5827;49.482;7.716;2023-03-26T11:13:28;2.87;;;1.20;;
11541;SDS011;5827;49.482;7.716;2023-03-26T11:15:41;0.80;;;0.80;;
11541;SDS011;5827;49.482;7.716;2023-03-26T11:17:51;3.20;;;1.40;;
11541;SDS011;5827;49.482;7.716;2023-03-26T11:20:04;3.87;;;1.47;;
11541;SDS011;5827;49.482;7.716;2023-03-26T11:22:14;2.27;;;1.27;;
11541;SDS011;5827;49.482;7.716;2023-03-26T11:24:41;4.10;;;1.40;;
11541;SDS011;5827;49.482;7.716;2023-03-26T11:26:56;2.53;;;1.57;;
11541;SDS011;5827;49.482;7.716;2023-03-26T11:29:05;2.97;;;1.50;;
11541;SDS011;5827;49.482;7.716;2023-03-26T11:31:22;3.43;;;1.40;;
11541;SDS011;5827;49.482;7.716;2023-03-26T11:33:34;3.40;;;1.50;;
11541;SDS011;5827;49.482;7.716;2023-03-26T11:35:38;1.80;;;1.23;;
11541;SDS011;5827;49.482;7.716;2023-03-26T11:37:46;4.43;;;1.10;;
11541;SDS011;5827;49.482;7.716;2023-03-26T11:39:53;2.17;;;1.20;;
11541;SDS011;5827;49.482;7.716;2023-03-26T11:42:01;3.07;;;1.43;;
11541;SDS011;5827;49.482;7.716;2023-03-26T11:44:10;3.93;;;1.47;;
11541;SDS011;5827;49.482;7.716;2023-03-26T11:46:20;4.27;;;1.53;;
11541;SDS011;5827;49.482;7.716;2023-03-26T11:48:24;5.40;;;1.37;;
11541;SDS011;5827;49.482;7.716;2023-03-26T11:50:31;3.87;;;1.20;;
11541;SDS011;5827;49.482;7.716;2023-03-26T11:52:35;3.17;;;1.30;;
11541;SDS011;5827;49.482;7.716;2023-03-26T11:54:38;3.93;;;1.50;;
11541;SDS011;5827;49.482;7.716;2023-03-26T11:56:40;4.43;;;1.60;;
11541;SDS011;5827;49.482;7.716;2023-03-26T11:58:48;2.80;;;1.20;;
11541;SDS011;5827;49.482;7.716;2023-03-26T12:00:53;3.30;;;1.20;;
11541;SDS011;5827;49.482;7.716;2023-03-26T12:02:56;2.13;;;1.10;;
11541;SDS011;5827;49.482;7.716;2023-03-26T12:05:09;3.20;;;1.40;;
11541;SDS011;5827;49.482;7.716;2023-03-26T12:07:14;2.10;;;1.20;;
11541;SDS011;5827;49.482;7.716;2023-03-26T12:09:17;2.93;;;1.30;;
11541;SDS011;5827;49.482;7.716;2023-03-26T12:11:21;3.13;;;1.10;;
11541;SDS011;5827;49.482;7.716;2023-03-26T12:13:28;2.60;;;1.33;;
11541;SDS011;5827;49.482;7.716;2023-03-26T12:15:34;4.47;;;1.40;;
11541;SDS011;5827;49.482;7.716;2023-03-26T12:17:43;3.57;;;1.20;;
11541;SDS011;5827;49.482;7.716;2023-03-26T12:19:46;3.80;;;1.60;;
11541;SDS011;5827;49.482;7.716;2023-03-26T12:21:48;2.93;;;1.53;;
11541;SDS011;5827;49.482;7.716;2023-03-26T12:23:55;2.57;;;1.30;;
11541;SDS011;5827;49.482;7.716;2023-03-26T12:26:03;3.77;;;1.63;;
11541;SDS011;5827;49.482;7.716;2023-03-26T12:28:16;4.80;;;1.90;;
11541;SDS011;5827;49.482;7.716;2023-03-26T12:30:19;4.47;;;1.43;;
11541;SDS011;5827;49.482;7.716;2023-03-26T12:32:22;3.50;;;1.60;;
11541;SDS011;5827;49.482;7.716;2023-03-26T12:34:27;3.77;;;1.57;;
11541;SDS011;5827;49.482;7.716;2023-03-26T12:36:33;7.40;;;1.80;;
11541;SDS011;5827;49.482;7.716;2023-03-26T12:38:35;3.83;;;1.87;;
11541;SDS011;5827;49.482;7.716;2023-03-26T12:40:38;2.07;;;1.30;;
11541;SDS011;5827;49.482;7.716;2023-03-26T12:42:41;4.40;;;1.70;;
11541;SDS011;5827;49.482;7.716;2023-03-26T12:44:53;3.47;;;1.57;;
11541;SDS011;5827;49.482;7.716;2023-03-26T12:47:07;6.40;;;1.80;;
11541;SDS011;5827;49.482;7.716;2023-03-26T12:49:18;6.13;;;1.60;;
11541;SDS011;5827;49.482;7.716;2023-03-26T12:51:32;3.57;;;1.57;;
11541;SDS011;5827;49.482;7.716;2023-03-26T12:53:44;3.17;;;1.73;;
11541;SDS011;5827;49.482;7.716;2023-03-26T12:55:58;5.40;;;2.17;;
11541;SDS011;5827;49.482;7.716;2023-03-26T12:58:05;4.70;;;1.93;;
11541;SDS011;5827;49.482;7.716;2023-03-26T13:00:27;5.10;;;1.80;;
11541;SDS011;5827;49.482;7.716;2023-03-26T13:02:50;4.93;;;1.63;;
11541;SDS011;5827;49.482;7.716;2023-03-26T13:05:13;5.10;;;1.60;;
11541;SDS011;5827;49.482;7.716;2023-03-26T13:07:24;4.73;;;1.73;;
11541;SDS011;5827;49.482;7.716;2023-03-26T13:09:44;5.63;;;1.90;;
11541;SDS011;5827;49.482;7.716;2023-03-26T13:12:08;4.83;;;1.73;;
11541;SDS011;5827;49.482;7.716;2023-03-26T13:14:25;5.30;;;1.90;;
11541;SDS011;5827;49.482;7.716;2023-03-26T13:16:43;3.20;;;1.90;;
11541;SDS011;5827;49.482;7.716;2023-03-26T13:18:49;5.60;;;1.87;;
11541;SDS011;5827;49.482;7.716;2023-03-26T13:20:55;5.57;;;2.00;;
11541;SDS011;5827;49.482;7.716;2023-03-26T13:23:04;4.50;;;1.90;;